Aviation Digital Data Service (ADDS)

Output produced by METARs form (2052 UTC 24 June 2018)
found at http://www.aviationweather.gov/adds/metars/
 
ELLX 242020Z 36009KT 9999 FEW040 SCT045 15/09 Q1022 NOSIG
TAF ELLX 241700Z 2418/2524 34010KT CAVOK